createdAt,value
2018-12-17T00:00:05.367Z,96.66
2018-12-17T00:02:48.812Z,96.89
2018-12-17T00:05:25.830Z,97.10
2018-12-17T00:08:20.497Z,96.91
2018-12-17T00:11:03.932Z,96.67
2018-12-17T00:16:39.688Z,95.81
2018-12-17T00:19:14.569Z,95.59
2018-12-17T00:21:54.045Z,95.52
2018-12-17T00:24:31.830Z,95.43
2018-12-17T00:27:15.444Z,95.13
2018-12-17T00:30:12.931Z,94.83
2018-12-17T00:32:52.511Z,94.99
2018-12-17T00:35:30.379Z,94.62
2018-12-17T00:38:19.878Z,95.07
2018-12-17T00:41:01.031Z,95.41
2018-12-17T00:43:45.360Z,95.40
2018-12-17T00:46:21.079Z,95.49
2018-12-17T00:52:05.851Z,95.75
2018-12-17T00:54:40.163Z,95.75
2018-12-17T00:57:21.011Z,95.36
2018-12-17T01:00:15.536Z,96.22
2018-12-17T01:02:53.378Z,96.96
2018-12-17T01:05:29.483Z,96.35
2018-12-17T01:08:10.267Z,95.66
2018-12-17T01:10:49.390Z,96.00
2018-12-17T01:13:32.796Z,96.28
2018-12-17T01:16:10.928Z,95.63
2018-12-17T01:18:46.243Z,96.05
2018-12-17T01:21:26.130Z,95.26
2018-12-17T01:23:57.235Z,95.28
2018-12-17T01:26:32.375Z,95.32
2018-12-17T01:29:13.356Z,94.98
2018-12-17T01:31:57.027Z,94.82
2018-12-17T01:34:31.378Z,95.50
2018-12-17T01:37:12.362Z,96.66
2018-12-17T01:40:01.930Z,97.14
2018-12-17T01:42:37.787Z,96.99
2018-12-17T01:45:21.712Z,96.63
2018-12-17T01:48:18.978Z,95.98
2018-12-17T01:54:10.084Z,96.16
2018-12-17T01:56:46.214Z,95.35
2018-12-17T02:18:30.946Z,97.00
2018-12-17T02:21:11.528Z,96.97
2018-12-17T02:23:55.658Z,96.93
2018-12-17T02:26:40.445Z,97.33
2018-12-17T02:29:35.740Z,97.02
2018-12-17T02:32:06.565Z,96.40
2018-12-17T02:34:41.710Z,96.64
2018-12-17T02:37:17.873Z,96.47
2018-12-17T02:39:52.694Z,96.49
2018-12-17T02:42:39.957Z,96.30
2018-12-17T02:45:16.899Z,96.37
2018-12-17T02:47:53.155Z,96.04
2018-12-17T02:50:29.727Z,96.38
2018-12-17T02:53:24.389Z,96.70
2018-12-17T02:55:59.251Z,97.53
2018-12-17T02:58:54.669Z,97.53
2018-12-17T03:01:31.396Z,97.12
2018-12-17T03:04:04.736Z,97.51
2018-12-17T03:06:40.382Z,97.33
2018-12-17T03:09:30.097Z,97.64
2018-12-17T03:12:10.701Z,97.53
2018-12-17T03:14:52.190Z,97.27
2018-12-17T03:17:28.291Z,97.54
2018-12-17T03:20:05.406Z,97.63
2018-12-17T03:22:46.732Z,97.07
2018-12-17T03:25:28.255Z,97.04
2018-12-17T03:28:03.070Z,96.13
2018-12-17T03:30:44.569Z,95.99
2018-12-17T03:33:33.825Z,96.06
2018-12-17T03:36:17.136Z,96.67
2018-12-17T03:39:06.018Z,96.42
2018-12-17T03:41:49.365Z,95.92
2018-12-17T03:44:38.462Z,96.02
2018-12-17T03:47:12.113Z,96.08
2018-12-17T03:49:46.535Z,96.52
2018-12-17T03:52:25.329Z,95.76
2018-12-17T03:55:01.226Z,95.96
2018-12-17T03:57:38.383Z,96.41
2018-12-17T04:03:16.797Z,95.61
2018-12-17T04:06:01.666Z,95.80
2018-12-17T04:09:00.695Z,96.31
2018-12-17T04:11:37.614Z,96.21
2018-12-17T04:14:36.388Z,96.30
2018-12-17T04:17:19.839Z,95.76
2018-12-17T04:20:02.915Z,95.19
2018-12-17T04:22:41.289Z,95.94
2018-12-17T04:25:18.539Z,95.40
2018-12-17T04:27:54.683Z,95.28
2018-12-17T04:30:25.640Z,95.65
2018-12-17T04:33:02.846Z,96.40
2018-12-17T04:35:38.228Z,96.56
2018-12-17T04:38:08.911Z,96.53
2018-12-17T04:43:52.332Z,96.04
2018-12-17T04:46:25.009Z,95.78
2018-12-17T04:49:06.401Z,95.60
2018-12-17T04:51:53.568Z,96.37
2018-12-17T04:54:29.657Z,96.61
2018-12-17T04:57:04.947Z,97.32
2018-12-17T04:59:47.394Z,98.04
2018-12-17T05:02:30.519Z,98.06
2018-12-17T05:05:13.939Z,97.39
2018-12-17T05:13:05.314Z,97.44
2018-12-17T05:15:39.417Z,97.73
2018-12-17T05:34:24.050Z,96.07
2018-12-17T05:37:12.957Z,96.89
2018-12-17T05:39:44.510Z,97.36
2018-12-17T05:42:28.959Z,97.49
2018-12-17T05:45:10.381Z,97.91
2018-12-17T05:51:34.124Z,96.88
2018-12-17T05:54:17.463Z,96.63
2018-12-17T05:56:50.211Z,96.61
2018-12-17T05:59:28.716Z,95.76
2018-12-17T06:02:05.186Z,96.09
2018-12-17T06:04:47.789Z,96.55
2018-12-17T06:07:26.110Z,96.05
2018-12-17T06:10:00.856Z,96.29
2018-12-17T06:12:39.459Z,97.65
2018-12-17T06:15:14.856Z,97.12
2018-12-17T06:17:50.229Z,96.59
2018-12-17T06:20:45.513Z,97.35
2018-12-17T06:23:27.208Z,97.88
2018-12-17T06:26:06.999Z,98.41
2018-12-17T06:28:44.436Z,98.66
2018-12-17T06:31:27.462Z,99.23
2018-12-17T06:37:20.916Z,98.47
2018-12-17T06:46:27.805Z,97.02
2018-12-17T06:52:42.211Z,97.95
2018-12-17T06:55:25.929Z,98.52
2018-12-17T06:58:21.433Z,99.17
2018-12-17T07:01:02.895Z,99.55
2018-12-17T07:03:58.501Z,98.78
2018-12-17T07:06:42.174Z,98.54
2018-12-17T07:09:25.628Z,98.20
2018-12-17T07:15:34.655Z,97.70
2018-12-17T07:18:15.057Z,97.52
2018-12-17T07:21:04.518Z,98.16
2018-12-17T07:26:52.993Z,97.67
2018-12-17T07:29:42.167Z,98.07
2018-12-17T07:32:18.660Z,98.80
2018-12-17T07:34:59.751Z,98.95
2018-12-17T07:37:40.668Z,99.97
2018-12-17T07:40:30.954Z,100.00
2018-12-17T07:43:06.481Z,100.00
2018-12-17T07:45:44.479Z,100.00
2018-12-17T07:48:34.781Z,100.00
2018-12-17T07:51:23.930Z,100.00
2018-12-17T07:54:07.262Z,100.00
2018-12-17T07:56:42.475Z,100.00
2018-12-17T07:59:25.013Z,100.00
2018-12-17T08:02:09.879Z,100.00
2018-12-17T08:05:01.811Z,100.00
2018-12-17T08:07:40.911Z,100.00
2018-12-17T08:10:21.584Z,100.00
2018-12-17T08:13:05.470Z,100.00
2018-12-17T08:15:40.703Z,99.76
2018-12-17T08:18:31.262Z,100.00
2018-12-17T08:21:14.626Z,100.00
2018-12-17T08:23:56.046Z,100.00
2018-12-17T08:26:31.670Z,100.00
2018-12-17T08:29:02.795Z,100.00
2018-12-17T08:31:56.260Z,100.00
2018-12-17T08:34:39.335Z,100.00
2018-12-17T08:37:33.700Z,100.00
2018-12-17T08:40:09.305Z,100.00
2018-12-17T08:42:53.676Z,100.00
2018-12-17T08:45:34.899Z,100.00
2018-12-17T08:57:37.927Z,100.00
2018-12-17T09:00:21.136Z,100.00
2018-12-17T09:02:56.044Z,100.00
2018-12-17T09:05:39.197Z,100.00
2018-12-17T09:08:25.699Z,100.00
2018-12-17T09:11:09.877Z,100.00
2018-12-17T09:13:59.941Z,100.00
2018-12-17T09:16:42.022Z,100.00
2018-12-17T09:22:47.169Z,100.00
2018-12-17T09:25:24.908Z,100.00
2018-12-17T09:28:14.578Z,100.00
2018-12-17T09:30:57.494Z,100.00
2018-12-17T09:33:40.791Z,100.00
2018-12-17T09:36:16.043Z,100.00
2018-12-17T09:38:51.023Z,100.00
2018-12-17T09:41:38.622Z,100.00
2018-12-17T09:47:26.142Z,100.00
2018-12-17T09:50:05.512Z,100.00
2018-12-17T09:52:52.187Z,100.00
2018-12-17T09:55:36.352Z,100.00
2018-12-17T09:58:20.111Z,100.00
2018-12-17T10:01:00.876Z,100.00
2018-12-17T10:03:49.232Z,100.00
2018-12-17T10:06:29.559Z,100.00
2018-12-17T10:09:17.224Z,100.00
2018-12-17T10:12:09.579Z,100.00
2018-12-17T10:15:01.342Z,100.00
2018-12-17T10:17:43.024Z,100.00
2018-12-17T10:20:24.529Z,100.00
2018-12-17T10:23:09.636Z,100.00
2018-12-17T10:25:52.732Z,100.00
2018-12-17T10:28:48.352Z,100.00
2018-12-17T10:38:05.284Z,100.00
2018-12-17T10:40:55.250Z,100.00
2018-12-17T10:47:29.651Z,100.00
2018-12-17T10:53:06.219Z,100.00
2018-12-17T10:55:47.752Z,100.00
2018-12-17T10:58:32.008Z,100.00
2018-12-17T11:01:20.619Z,100.00
2018-12-17T11:04:16.631Z,100.00
2018-12-17T11:07:03.014Z,100.00
2018-12-17T11:13:13.148Z,100.00
2018-12-17T11:15:57.883Z,100.00
2018-12-17T11:18:41.462Z,100.00
2018-12-17T11:21:25.373Z,100.00
2018-12-17T11:24:10.422Z,100.00
2018-12-17T11:26:44.817Z,100.00
2018-12-17T11:29:38.022Z,100.00
2018-12-17T11:32:29.322Z,100.00
2018-12-17T11:35:07.223Z,100.00
2018-12-17T11:37:49.228Z,100.00
2018-12-17T11:40:27.854Z,100.00
2018-12-17T11:46:25.829Z,100.00
2018-12-17T11:49:15.223Z,100.00
2018-12-17T11:51:53.477Z,100.00
2018-12-17T11:54:41.007Z,100.00
2018-12-17T11:58:26.795Z,100.00
2018-12-17T12:04:20.461Z,100.00
2018-12-17T12:07:07.207Z,100.00
2018-12-17T12:09:48.694Z,100.00
2018-12-17T12:12:30.724Z,100.00
2018-12-17T12:15:08.612Z,100.00
2018-12-17T12:20:57.274Z,100.00
2018-12-17T12:23:41.225Z,100.00
2018-12-17T12:26:22.706Z,100.00
2018-12-17T12:29:13.110Z,100.00
2018-12-17T12:31:57.953Z,100.00
2018-12-17T12:34:43.369Z,100.00
2018-12-17T12:37:27.305Z,100.00
2018-12-17T12:40:20.531Z,100.00
2018-12-17T12:42:57.637Z,100.00
2018-12-17T12:45:33.267Z,100.00
2018-12-17T12:48:08.126Z,100.00
2018-12-17T12:50:48.804Z,100.00
2018-12-17T12:53:29.424Z,100.00
2018-12-17T12:56:14.313Z,100.00
2018-12-17T12:58:55.047Z,100.00
2018-12-17T13:01:40.834Z,100.00
2018-12-17T13:04:24.369Z,100.00
2018-12-17T13:07:05.680Z,100.00
2018-12-17T13:09:45.397Z,100.00
2018-12-17T13:25:22.218Z,100.00
2018-12-17T13:47:45.164Z,100.00
2018-12-17T13:50:30.208Z,100.00
2018-12-17T13:53:21.845Z,100.00
2018-12-17T13:59:06.168Z,100.00
2018-12-17T14:01:59.731Z,100.00
2018-12-17T14:07:48.650Z,100.00
2018-12-17T14:16:58.395Z,100.00
2018-12-17T14:19:53.847Z,100.00
2018-12-17T14:22:48.345Z,100.00
2018-12-17T14:25:33.458Z,100.00
2018-12-17T14:28:30.051Z,100.00
2018-12-17T14:34:26.254Z,100.00
2018-12-17T14:40:34.326Z,100.00
2018-12-17T14:46:36.191Z,100.00
2018-12-17T14:52:45.273Z,100.00
2018-12-17T16:00:47.816Z,100.00
2018-12-17T16:03:48.821Z,100.00
2018-12-17T16:06:33.302Z,100.00
2018-12-17T16:09:33.440Z,100.00
2018-12-17T16:12:24.007Z,100.00
2018-12-17T16:15:15.783Z,100.00
2018-12-17T16:21:13.298Z,100.00
2018-12-17T16:30:28.292Z,100.00
2018-12-17T16:33:15.797Z,100.00
2018-12-17T18:06:45.295Z,100.00
2018-12-17T18:55:12.075Z,100.00
